createdAt,value
2022-10-17T00:01:52.702Z,81.56
2022-10-17T00:04:19.179Z,82.41
2022-10-17T00:06:46.933Z,83.29
2022-10-17T00:09:13.397Z,83.85
2022-10-17T00:11:39.816Z,83.20
2022-10-17T00:14:06.547Z,81.05
2022-10-17T00:16:34.996Z,78.68
2022-10-17T00:19:01.442Z,79.80
2022-10-17T00:21:27.926Z,80.97
2022-10-17T00:23:56.005Z,78.89
2022-10-17T00:26:22.611Z,81.66
2022-10-17T00:28:50.391Z,82.99
2022-10-17T00:31:18.621Z,83.33
2022-10-17T00:33:45.409Z,83.46
2022-10-17T00:36:13.676Z,82.89
2022-10-17T00:38:41.632Z,81.80
2022-10-17T00:41:11.371Z,81.31
2022-10-17T00:43:56.278Z,79.31
2022-10-17T00:46:25.284Z,78.70
2022-10-17T00:48:54.527Z,79.48
2022-10-17T00:51:25.178Z,77.65
2022-10-17T00:53:51.872Z,78.78
2022-10-17T00:56:21.119Z,79.03
2022-10-17T00:58:47.737Z,78.61
2022-10-17T01:01:14.268Z,79.94
2022-10-17T01:03:40.988Z,78.93
2022-10-17T01:06:07.400Z,78.03
2022-10-17T01:08:34.227Z,77.04
2022-10-17T01:11:10.757Z,76.90
2022-10-17T01:13:44.625Z,76.15
2022-10-17T01:16:18.538Z,76.42
2022-10-17T01:19:01.283Z,77.63
2022-10-17T01:21:33.255Z,79.95
2022-10-17T01:24:20.976Z,80.70
2022-10-17T01:27:17.936Z,80.69
2022-10-17T01:30:00.091Z,81.44
2022-10-17T01:32:33.104Z,80.86
2022-10-17T01:35:08.876Z,79.24
2022-10-17T01:37:43.846Z,77.39
2022-10-17T01:40:14.695Z,78.90
2022-10-17T01:42:45.888Z,77.85
2022-10-17T01:45:17.607Z,77.49
2022-10-17T01:47:47.961Z,78.37
2022-10-17T01:50:19.510Z,77.06
2022-10-17T01:52:50.999Z,76.91
2022-10-17T01:55:22.106Z,77.57
2022-10-17T01:57:52.861Z,76.27
2022-10-17T02:00:23.094Z,77.03
2022-10-17T02:02:55.013Z,76.99
2022-10-17T02:05:26.399Z,77.92
2022-10-17T02:07:52.792Z,76.99
2022-10-17T02:10:31.471Z,76.83
2022-10-17T02:13:04.718Z,78.46
2022-10-17T02:15:43.582Z,78.27
2022-10-17T02:18:29.325Z,76.86
2022-10-17T02:21:01.016Z,76.73
2022-10-17T02:23:34.301Z,78.12
2022-10-17T02:26:09.863Z,80.82
2022-10-17T02:28:44.471Z,81.95
2022-10-17T02:31:15.942Z,80.50
2022-10-17T02:33:48.862Z,79.03
2022-10-17T02:36:21.322Z,77.68
2022-10-17T02:38:49.440Z,79.79
2022-10-17T02:41:19.251Z,78.36
2022-10-17T02:43:49.109Z,77.33
2022-10-17T02:46:18.380Z,77.55
2022-10-17T02:48:50.326Z,77.73
2022-10-17T02:51:26.693Z,77.48
2022-10-17T02:54:01.110Z,77.72
2022-10-17T02:56:31.261Z,79.12
2022-10-17T02:58:59.630Z,79.04
2022-10-17T03:01:27.185Z,78.54
2022-10-17T03:04:06.364Z,80.19
2022-10-17T03:06:32.818Z,82.50
2022-10-17T03:08:59.221Z,79.94
2022-10-17T03:11:25.623Z,79.48
2022-10-17T03:13:52.073Z,78.15
2022-10-17T03:16:18.489Z,76.80
2022-10-17T03:18:47.966Z,77.47
2022-10-17T03:21:17.990Z,78.25
2022-10-17T03:23:44.444Z,79.27
2022-10-17T03:26:10.902Z,79.45
2022-10-17T03:28:37.513Z,79.97
2022-10-17T03:31:08.747Z,79.30
2022-10-17T03:33:35.809Z,81.15
2022-10-17T03:36:05.588Z,82.63
2022-10-17T03:38:33.391Z,81.45
2022-10-17T03:40:59.791Z,82.48
2022-10-17T03:43:26.207Z,81.49
2022-10-17T03:45:52.653Z,83.04
2022-10-17T03:48:19.123Z,83.86
2022-10-17T03:50:45.643Z,83.48
2022-10-17T03:53:12.052Z,82.97
2022-10-17T03:55:39.803Z,84.88
2022-10-17T03:58:06.219Z,86.01
2022-10-17T04:00:32.681Z,86.49
2022-10-17T04:02:59.131Z,84.46
2022-10-17T04:05:25.565Z,84.49
2022-10-17T04:07:51.962Z,82.31
2022-10-17T04:10:18.393Z,84.35
2022-10-17T04:12:46.152Z,83.55
2022-10-17T04:15:12.798Z,84.73
2022-10-17T04:17:39.195Z,84.06
2022-10-17T04:20:06.847Z,84.34
2022-10-17T04:22:33.277Z,83.59
2022-10-17T04:24:59.690Z,83.87
2022-10-17T04:27:26.088Z,82.40
2022-10-17T04:29:53.897Z,83.74
2022-10-17T04:32:20.318Z,83.06
2022-10-17T04:34:48.459Z,83.88
2022-10-17T04:37:14.836Z,84.21
2022-10-17T04:39:41.275Z,83.45
2022-10-17T04:42:08.057Z,83.97
2022-10-17T04:44:34.464Z,82.97
2022-10-17T04:47:02.223Z,85.04
2022-10-17T04:49:28.717Z,83.34
2022-10-17T04:51:55.199Z,84.03
2022-10-17T04:54:21.623Z,85.91
2022-10-17T04:56:48.110Z,86.89
2022-10-17T04:59:14.500Z,86.78
2022-10-17T05:01:40.990Z,88.52
2022-10-17T05:04:08.898Z,87.74
2022-10-17T05:06:35.292Z,89.26
2022-10-17T05:09:01.690Z,84.84
2022-10-17T05:11:29.383Z,85.71
2022-10-17T05:13:58.010Z,87.37
2022-10-17T05:16:25.519Z,86.84
2022-10-17T05:18:53.810Z,88.73
2022-10-17T05:21:23.229Z,85.26
2022-10-17T05:23:50.246Z,87.89
2022-10-17T05:26:16.903Z,88.02
2022-10-17T05:28:43.403Z,87.49
2022-10-17T05:31:10.710Z,88.10
2022-10-17T05:33:38.724Z,88.05
2022-10-17T05:36:06.636Z,88.99
2022-10-17T05:38:34.821Z,88.50
2022-10-17T05:41:02.674Z,89.07
2022-10-17T05:43:29.456Z,88.50
2022-10-17T05:45:56.175Z,88.70
2022-10-17T05:48:23.830Z,86.60
2022-10-17T05:50:50.226Z,85.71
2022-10-17T05:53:17.244Z,87.07
2022-10-17T05:55:44.982Z,85.48
2022-10-17T05:58:17.764Z,86.76
2022-10-17T06:00:49.010Z,86.88
2022-10-17T06:03:15.494Z,87.07
2022-10-17T06:05:41.936Z,84.97
2022-10-17T06:08:08.451Z,86.01
2022-10-17T06:10:34.854Z,88.21
2022-10-17T06:13:02.584Z,89.02
2022-10-17T06:15:29.082Z,86.67
2022-10-17T06:17:55.480Z,88.36
2022-10-17T06:20:21.951Z,86.62
2022-10-17T06:22:48.376Z,87.72
2022-10-17T06:25:14.860Z,88.36
2022-10-17T06:27:41.287Z,88.16
2022-10-17T06:30:09.991Z,86.43
2022-10-17T06:32:36.448Z,86.73
2022-10-17T06:35:02.954Z,86.57
2022-10-17T06:37:33.765Z,85.38
2022-10-17T06:40:03.228Z,86.32
2022-10-17T06:42:29.615Z,86.95
2022-10-17T06:44:56.014Z,87.70
2022-10-17T06:47:23.773Z,87.44
2022-10-17T06:49:50.169Z,87.53
2022-10-17T06:52:16.589Z,87.11
2022-10-17T06:54:43.365Z,87.86
2022-10-17T06:57:10.126Z,86.18
2022-10-17T06:59:36.651Z,86.74
2022-10-17T07:02:03.155Z,86.37
2022-10-17T07:04:31.207Z,85.19
2022-10-17T07:09:25.310Z,85.86
2022-10-17T07:11:51.713Z,85.82
2022-10-17T07:14:18.157Z,84.29
2022-10-17T07:16:44.558Z,83.87
2022-10-17T07:19:11.009Z,84.75
2022-10-17T07:21:39.421Z,83.10
2022-10-17T07:24:06.191Z,83.93
2022-10-17T07:26:32.985Z,82.71
2022-10-17T07:28:59.427Z,82.93
2022-10-17T07:31:25.866Z,81.84
2022-10-17T07:33:52.271Z,80.58
2022-10-17T07:36:18.803Z,82.28
2022-10-17T07:38:46.537Z,80.61
2022-10-17T07:41:16.575Z,80.73
2022-10-17T07:43:46.230Z,79.50
2022-10-17T07:46:12.701Z,79.80
2022-10-17T07:48:39.700Z,80.32
2022-10-17T07:51:07.930Z,79.48
2022-10-17T07:53:35.626Z,79.47
2022-10-17T07:56:05.572Z,78.04
2022-10-17T07:58:32.004Z,80.05
2022-10-17T08:03:32.419Z,77.65
2022-10-17T08:05:59.266Z,77.62
2022-10-17T08:08:25.867Z,76.53
2022-10-17T08:10:52.691Z,78.87
2022-10-17T08:13:21.198Z,77.35
2022-10-17T08:15:47.772Z,77.50
2022-10-17T08:18:14.398Z,77.11
2022-10-17T08:20:40.915Z,78.27
2022-10-17T08:23:07.470Z,78.27
2022-10-17T08:25:33.924Z,78.70
2022-10-17T08:28:00.351Z,77.37
2022-10-17T08:30:28.258Z,78.44
2022-10-17T08:32:54.685Z,76.95
2022-10-17T08:35:21.087Z,76.26
2022-10-17T08:37:47.490Z,76.87
2022-10-17T08:40:19.173Z,74.85
2022-10-17T08:43:06.111Z,74.81
2022-10-17T08:45:40.887Z,75.33
2022-10-17T08:48:12.322Z,75.91
2022-10-17T08:50:44.262Z,74.54
2022-10-17T08:53:17.883Z,75.66
2022-10-17T08:55:45.904Z,74.85
2022-10-17T08:58:14.101Z,74.52
2022-10-17T09:00:59.994Z,73.73
2022-10-17T09:03:38.434Z,72.42
2022-10-17T09:06:21.052Z,74.32
2022-10-17T09:09:02.415Z,73.26
2022-10-17T09:11:43.250Z,72.75
2022-10-17T09:14:30.463Z,73.21
2022-10-17T09:17:12.173Z,73.19
2022-10-17T09:19:43.089Z,71.77
2022-10-17T09:22:14.879Z,72.81
2022-10-17T09:24:45.121Z,71.77
2022-10-17T09:27:22.281Z,71.93
2022-10-17T09:29:50.421Z,71.63
2022-10-17T09:32:23.711Z,71.46
2022-10-17T09:34:51.661Z,74.30
2022-10-17T09:37:19.422Z,73.88
2022-10-17T09:39:46.194Z,72.80
2022-10-17T09:42:15.159Z,71.23
2022-10-17T09:44:49.742Z,71.28
2022-10-17T09:47:28.206Z,69.50
2022-10-17T09:49:54.667Z,68.13
2022-10-17T09:52:25.238Z,68.80
2022-10-17T09:54:54.793Z,68.00
2022-10-17T09:57:22.462Z,68.74
2022-10-17T09:59:59.386Z,70.17
2022-10-17T10:02:29.012Z,69.76
2022-10-17T10:05:05.863Z,68.92
2022-10-17T10:07:35.729Z,71.15
2022-10-17T10:10:03.889Z,70.97
2022-10-17T10:12:33.109Z,70.61
2022-10-17T10:15:00.264Z,67.82
2022-10-17T10:17:37.396Z,68.65
2022-10-17T10:20:26.033Z,68.46
2022-10-17T10:23:06.749Z,68.23
2022-10-17T10:25:34.782Z,67.66
2022-10-17T10:28:01.944Z,68.14
2022-10-17T10:30:32.802Z,69.64
2022-10-17T10:33:02.593Z,66.85
2022-10-17T10:35:32.763Z,67.44
2022-10-17T10:38:01.695Z,65.32
2022-10-17T10:40:34.591Z,66.89
2022-10-17T10:43:05.074Z,64.84
2022-10-17T10:45:49.254Z,67.56
2022-10-17T10:48:20.322Z,68.55
2022-10-17T10:50:50.467Z,67.75
2022-10-17T10:53:38.283Z,64.32
2022-10-17T10:56:13.231Z,66.45
2022-10-17T10:58:49.259Z,65.40
2022-10-17T11:01:23.949Z,64.24
2022-10-17T11:04:03.648Z,65.90
2022-10-17T11:06:35.847Z,64.68
2022-10-17T11:09:18.048Z,63.98
2022-10-17T11:11:49.963Z,63.26
2022-10-17T11:14:23.413Z,64.46
2022-10-17T11:16:54.042Z,65.30
2022-10-17T11:19:25.274Z,64.73
2022-10-17T11:22:06.596Z,64.01
2022-10-17T11:24:39.522Z,63.67
2022-10-17T11:27:07.894Z,63.52
2022-10-17T11:29:36.565Z,61.85
2022-10-17T11:32:07.802Z,61.83
2022-10-17T11:34:41.332Z,61.05
2022-10-17T11:37:14.672Z,61.97
2022-10-17T11:42:17.426Z,62.09
2022-10-17T11:44:43.839Z,60.59
2022-10-17T11:47:20.427Z,59.93
2022-10-17T11:49:52.865Z,61.97
2022-10-17T11:52:55.278Z,60.96
2022-10-17T11:55:23.426Z,61.32
2022-10-17T11:58:01.657Z,59.67
2022-10-17T12:00:41.741Z,59.75
2022-10-17T12:03:23.740Z,57.74
2022-10-17T12:05:57.946Z,58.14
2022-10-17T12:08:31.400Z,59.33
2022-10-17T12:11:03.710Z,58.49
2022-10-17T12:13:53.727Z,59.22
2022-10-17T12:16:50.369Z,61.71
2022-10-17T12:19:31.605Z,58.92
2022-10-17T12:22:03.103Z,58.68
2022-10-17T12:24:37.083Z,59.58
2022-10-17T12:27:40.550Z,60.97
2022-10-17T12:30:17.194Z,61.29
2022-10-17T12:33:17.321Z,60.36
2022-10-17T12:35:43.732Z,60.68
2022-10-17T12:38:22.815Z,60.88
2022-10-17T12:40:57.487Z,60.31
2022-10-17T12:43:56.219Z,59.86
2022-10-17T12:46:46.978Z,59.80
2022-10-17T12:49:37.703Z,58.35
2022-10-17T12:52:20.125Z,57.43
2022-10-17T12:55:07.197Z,57.27
2022-10-17T12:57:48.418Z,58.38
2022-10-17T13:00:20.559Z,57.21
2022-10-17T13:02:49.028Z,56.64
2022-10-17T13:05:21.951Z,56.06
2022-10-17T13:07:49.545Z,57.50
2022-10-17T13:10:23.397Z,55.79
2022-10-17T13:12:51.929Z,56.60
2022-10-17T13:15:20.649Z,56.31
2022-10-17T13:17:56.307Z,57.70
2022-10-17T13:20:29.120Z,57.77
2022-10-17T13:22:58.104Z,57.92
2022-10-17T13:25:27.197Z,57.50
2022-10-17T13:28:05.996Z,58.06
2022-10-17T13:30:35.808Z,59.69
2022-10-17T13:33:03.243Z,57.96
2022-10-17T13:38:23.733Z,59.29
2022-10-17T13:40:51.517Z,58.87
2022-10-17T13:43:21.844Z,59.91
2022-10-17T13:45:50.387Z,57.98
2022-10-17T13:48:20.916Z,58.97
2022-10-17T13:50:49.280Z,59.43
2022-10-17T13:53:19.151Z,59.61
2022-10-17T13:56:22.939Z,59.33
2022-10-17T13:58:47.540Z,59.95
2022-10-17T14:01:14.833Z,61.05
2022-10-17T14:03:48.181Z,63.57
2022-10-17T14:06:18.455Z,61.20
2022-10-17T14:08:58.406Z,60.27
2022-10-17T14:11:32.314Z,62.26
2022-10-17T14:14:00.209Z,62.82
2022-10-17T14:16:33.094Z,62.46
2022-10-17T14:18:59.806Z,62.38
2022-10-17T14:21:40.866Z,62.69
2022-10-17T14:24:16.302Z,61.56
2022-10-17T14:26:52.165Z,61.85
2022-10-17T14:29:23.164Z,61.13
2022-10-17T14:31:49.904Z,61.52
2022-10-17T14:34:21.394Z,63.00
2022-10-17T14:36:52.106Z,63.10
2022-10-17T14:39:20.739Z,62.72
2022-10-17T14:41:48.017Z,62.14
2022-10-17T14:44:20.836Z,62.69
2022-10-17T14:46:51.345Z,63.32
2022-10-17T14:49:24.991Z,62.14
2022-10-17T14:52:25.480Z,62.86
2022-10-17T14:54:52.417Z,63.58
2022-10-17T14:57:23.644Z,62.10
2022-10-17T14:59:54.252Z,63.37
2022-10-17T15:02:21.805Z,63.85
2022-10-17T15:04:48.430Z,63.00
2022-10-17T15:07:16.104Z,63.14
2022-10-17T15:09:43.308Z,62.42
2022-10-17T15:12:14.953Z,63.13
2022-10-17T15:14:41.355Z,64.88
2022-10-17T15:17:13.505Z,64.97
2022-10-17T15:19:39.891Z,64.41
2022-10-17T15:22:06.326Z,64.23
2022-10-17T15:24:33.026Z,63.27
2022-10-17T15:26:59.417Z,63.32
2022-10-17T15:29:25.826Z,64.24
2022-10-17T15:31:52.249Z,65.19
2022-10-17T15:34:20.000Z,63.89
2022-10-17T15:36:49.384Z,63.78
2022-10-17T15:39:15.831Z,63.87
2022-10-17T15:41:42.293Z,64.09
2022-10-17T15:44:08.732Z,65.01
2022-10-17T15:46:35.645Z,65.30
2022-10-17T15:49:03.932Z,65.24
2022-10-17T15:51:31.655Z,65.50
2022-10-17T15:53:58.169Z,65.55
2022-10-17T15:56:28.469Z,65.87
2022-10-17T15:58:55.226Z,67.41
2022-10-17T16:01:24.725Z,65.50
2022-10-17T16:03:51.905Z,65.61
2022-10-17T16:06:19.582Z,64.48
2022-10-17T16:08:48.031Z,65.51
2022-10-17T16:11:19.046Z,65.70
2022-10-17T16:13:50.998Z,65.77
2022-10-17T16:16:17.429Z,65.20
2022-10-17T16:18:43.851Z,65.71
2022-10-17T16:21:12.254Z,64.82
2022-10-17T16:23:38.828Z,64.93
2022-10-17T16:26:06.674Z,65.27
2022-10-17T16:28:33.478Z,65.07
2022-10-17T16:30:59.957Z,65.17
2022-10-17T16:33:26.377Z,66.24
2022-10-17T16:35:52.795Z,65.35
2022-10-17T16:38:19.463Z,66.51
2022-10-17T16:40:45.868Z,67.16
2022-10-17T16:43:13.673Z,66.52
2022-10-17T16:45:40.198Z,67.88
2022-10-17T16:48:06.729Z,67.10
2022-10-17T16:50:33.223Z,67.99
2022-10-17T16:52:59.610Z,68.32
2022-10-17T16:55:25.998Z,67.37
2022-10-17T16:57:52.494Z,66.60
2022-10-17T17:00:20.385Z,66.54
2022-10-17T17:02:47.748Z,68.07
2022-10-17T17:05:14.642Z,66.74
2022-10-17T17:07:41.040Z,66.35
2022-10-17T17:10:08.306Z,66.97
2022-10-17T17:12:36.009Z,67.68
2022-10-17T17:15:02.697Z,66.65
2022-10-17T17:17:48.346Z,65.89
2022-10-17T17:20:16.907Z,66.91
2022-10-17T17:22:43.314Z,66.84
2022-10-17T17:25:11.815Z,67.25
2022-10-17T17:27:38.255Z,66.48
2022-10-17T17:30:05.502Z,66.35
2022-10-17T17:32:33.434Z,68.43
2022-10-17T17:34:59.849Z,67.49
2022-10-17T17:37:26.260Z,68.65
2022-10-17T17:39:52.675Z,67.38
2022-10-17T17:42:19.322Z,66.92
2022-10-17T17:44:45.740Z,67.21
2022-10-17T17:47:12.116Z,66.91
2022-10-17T17:49:39.900Z,67.16
2022-10-17T17:52:06.325Z,67.42
2022-10-17T17:54:35.045Z,68.02
2022-10-17T17:57:02.546Z,67.89
2022-10-17T17:59:29.008Z,68.90
2022-10-17T18:01:55.471Z,70.52
2022-10-17T18:04:21.984Z,71.33
2022-10-17T18:06:49.838Z,69.93
2022-10-17T18:09:16.262Z,71.99
2022-10-17T18:11:42.695Z,69.41
2022-10-17T18:14:12.148Z,69.41
2022-10-17T18:16:38.660Z,68.89
2022-10-17T18:19:07.289Z,68.44
2022-10-17T18:21:34.375Z,68.96
2022-10-17T18:24:02.745Z,69.58
2022-10-17T18:26:29.180Z,68.78
2022-10-17T18:28:55.823Z,68.88
2022-10-17T18:31:24.180Z,70.17
2022-10-17T18:33:52.189Z,70.11
2022-10-17T18:36:18.836Z,69.33
2022-10-17T18:38:45.278Z,71.37
2022-10-17T18:41:15.222Z,72.63
2022-10-17T18:43:43.799Z,71.40
2022-10-17T18:46:14.076Z,72.02
2022-10-17T18:48:43.633Z,72.61
2022-10-17T18:51:10.680Z,72.67
2022-10-17T18:53:39.840Z,72.49
2022-10-17T18:56:06.600Z,74.25
2022-10-17T18:58:34.442Z,73.09
2022-10-17T19:01:04.827Z,73.72
2022-10-17T19:03:31.591Z,75.43
2022-10-17T19:06:01.599Z,73.78
2022-10-17T19:08:28.567Z,74.23
2022-10-17T19:10:55.061Z,74.04
2022-10-17T19:13:21.829Z,72.84
2022-10-17T19:15:49.581Z,72.93
2022-10-17T19:18:15.992Z,72.28
2022-10-17T19:20:42.664Z,73.69
2022-10-17T19:23:09.084Z,73.49
2022-10-17T19:25:35.487Z,76.86
2022-10-17T19:28:01.955Z,74.97
2022-10-17T19:30:28.430Z,73.42
2022-10-17T19:32:56.211Z,74.87
2022-10-17T19:35:22.623Z,75.61
2022-10-17T19:37:49.125Z,73.65
2022-10-17T19:40:15.586Z,75.38
2022-10-17T19:42:42.012Z,73.27
2022-10-17T19:45:09.787Z,73.24
2022-10-17T19:47:36.214Z,74.70
2022-10-17T19:52:35.569Z,73.78
2022-10-17T19:55:02.136Z,73.81
2022-10-17T19:57:28.560Z,75.27
2022-10-17T19:59:56.042Z,74.68
2022-10-17T20:02:22.773Z,74.04
2022-10-17T20:04:54.735Z,73.26
2022-10-17T20:07:34.225Z,73.23
2022-10-17T20:10:00.635Z,71.93
2022-10-17T20:12:27.274Z,74.06
2022-10-17T20:14:53.860Z,73.91
2022-10-17T20:17:20.260Z,73.85
2022-10-17T20:19:46.672Z,73.41
2022-10-17T20:22:13.190Z,74.43
2022-10-17T20:24:40.995Z,73.72
2022-10-17T20:27:07.384Z,73.77
2022-10-17T20:29:33.833Z,73.87
2022-10-17T20:32:00.277Z,73.13
2022-10-17T20:34:26.718Z,75.10
2022-10-17T20:36:53.459Z,74.53
2022-10-17T20:39:20.935Z,75.83
2022-10-17T20:41:48.760Z,75.98
2022-10-17T20:44:15.292Z,74.87
2022-10-17T20:47:00.342Z,76.25
2022-10-17T20:49:28.024Z,74.69
2022-10-17T20:51:54.436Z,78.05
2022-10-17T20:54:20.854Z,76.87
2022-10-17T20:56:48.886Z,76.24
2022-10-17T20:59:17.096Z,75.23
2022-10-17T21:01:44.949Z,73.42
2022-10-17T21:04:40.361Z,74.32
2022-10-17T21:06:58.507Z,73.57
2022-10-17T21:09:25.172Z,73.57
2022-10-17T21:11:52.936Z,73.08
2022-10-17T21:14:19.348Z,72.98
2022-10-17T21:16:45.828Z,75.48
2022-10-17T21:19:13.320Z,75.09
2022-10-17T21:21:41.574Z,74.36
2022-10-17T21:24:10.777Z,73.08
2022-10-17T21:26:38.018Z,73.70
2022-10-17T21:29:06.583Z,73.17
2022-10-17T21:31:34.474Z,73.65
2022-10-17T21:34:05.628Z,74.43
2022-10-17T21:36:32.107Z,73.59
2022-10-17T21:38:59.093Z,74.69
2022-10-17T21:41:28.193Z,74.57
2022-10-17T21:43:56.357Z,74.43
2022-10-17T21:46:24.505Z,74.03
2022-10-17T21:48:51.622Z,74.39
2022-10-17T21:51:20.204Z,75.61
2022-10-17T21:53:46.795Z,75.33
2022-10-17T21:56:14.940Z,74.51
2022-10-17T21:58:42.071Z,75.06
2022-10-17T22:01:10.441Z,74.41
2022-10-17T22:03:42.770Z,74.74
2022-10-17T22:09:01.816Z,78.24
2022-10-17T22:11:30.493Z,75.51
2022-10-17T22:14:02.493Z,76.33
2022-10-17T22:16:29.207Z,75.00
2022-10-17T22:19:03.125Z,75.21
2022-10-17T22:21:34.237Z,76.43
2022-10-17T22:24:02.193Z,75.54
2022-10-17T22:26:30.139Z,75.27
2022-10-17T22:28:56.809Z,76.41
2022-10-17T22:31:23.410Z,75.83
2022-10-17T22:33:50.130Z,76.13
2022-10-17T22:36:17.982Z,75.78
2022-10-17T22:38:44.450Z,75.34
2022-10-17T22:41:10.898Z,76.09
2022-10-17T22:43:37.340Z,75.86
2022-10-17T22:46:06.130Z,77.09
2022-10-17T22:48:33.007Z,76.47
2022-10-17T22:50:59.975Z,76.02
2022-10-17T22:53:28.386Z,76.68
2022-10-17T22:55:57.264Z,76.96
2022-10-17T22:58:25.592Z,77.30
2022-10-17T23:00:52.856Z,77.31
2022-10-17T23:03:20.376Z,76.18
2022-10-17T23:05:46.987Z,76.96
2022-10-17T23:08:14.888Z,76.51
2022-10-17T23:10:43.048Z,75.85
2022-10-17T23:13:09.508Z,77.40
2022-10-17T23:15:36.008Z,78.87
2022-10-17T23:18:02.753Z,78.60
2022-10-17T23:20:30.340Z,77.24
2022-10-17T23:22:57.963Z,76.70
2022-10-17T23:25:25.238Z,77.47
2022-10-17T23:27:53.004Z,77.08
2022-10-17T23:30:19.731Z,78.21
2022-10-17T23:32:46.196Z,78.46
2022-10-17T23:35:12.598Z,78.32
2022-10-17T23:37:39.203Z,78.19
2022-10-17T23:40:06.605Z,77.82
2022-10-17T23:42:33.083Z,77.52
2022-10-17T23:45:00.854Z,76.37
2022-10-17T23:47:27.314Z,79.42
2022-10-17T23:49:53.726Z,77.20
2022-10-17T23:52:20.263Z,76.15
2022-10-17T23:54:46.669Z,76.81
2022-10-17T23:57:13.050Z,76.13
2022-10-17T23:59:39.471Z,79.26
